createdAt,value
2018-11-03T00:00:01.744Z,9.30
2018-11-03T00:02:32.879Z,9.30
2018-11-03T00:05:03.853Z,9.30
2018-11-03T00:07:34.765Z,9.40
2018-11-03T00:10:06.090Z,9.30
2018-11-03T00:12:38.269Z,9.40
2018-11-03T00:15:09.553Z,9.40
2018-11-03T00:17:40.505Z,9.40
2018-11-03T00:20:11.385Z,9.40
2018-11-03T00:22:42.257Z,9.40
2018-11-03T00:25:13.225Z,9.30
2018-11-03T00:27:44.490Z,9.30
2018-11-03T00:30:15.475Z,9.30
2018-11-03T00:32:46.462Z,9.30
2018-11-03T00:35:17.710Z,9.30
2018-11-03T00:37:48.604Z,9.40
2018-11-03T00:40:19.772Z,9.40
2018-11-03T00:42:50.772Z,9.30
2018-11-03T00:45:21.840Z,9.40
2018-11-03T00:47:52.780Z,9.40
2018-11-03T00:50:23.685Z,9.40
2018-11-03T00:52:54.642Z,9.30
2018-11-03T00:55:25.565Z,9.40
2018-11-03T00:57:56.511Z,9.30
2018-11-03T01:00:27.631Z,9.30
2018-11-03T01:02:58.697Z,9.30
2018-11-03T01:05:29.837Z,9.30
2018-11-03T01:08:00.736Z,9.40
2018-11-03T01:10:31.699Z,9.40
2018-11-03T01:13:02.694Z,9.40
2018-11-03T01:15:33.632Z,9.30
2018-11-03T01:18:04.641Z,9.30
2018-11-03T01:20:35.694Z,9.40
2018-11-03T01:23:06.684Z,9.30
2018-11-03T01:25:37.676Z,9.30
2018-11-03T01:28:08.669Z,9.30
2018-11-03T01:30:39.489Z,9.30
2018-11-03T01:33:10.535Z,9.30
2018-11-03T01:35:41.494Z,9.30
2018-11-03T01:38:12.417Z,9.30
2018-11-03T01:40:43.791Z,9.20
2018-11-03T01:43:15.376Z,9.20
2018-11-03T01:45:46.795Z,9.20
2018-11-03T01:48:17.720Z,9.10
2018-11-03T01:50:48.698Z,9.10
2018-11-03T01:53:19.856Z,9.10
2018-11-03T01:55:51.016Z,9.10
2018-11-03T01:58:21.891Z,9.10
2018-11-03T02:00:53.213Z,9.00
2018-11-03T02:03:24.649Z,8.90
2018-11-03T02:05:55.531Z,8.90
2018-11-03T02:08:27.049Z,8.90
2018-11-03T02:10:57.934Z,8.80
2018-11-03T02:13:28.879Z,8.80
2018-11-03T02:15:59.766Z,8.80
2018-11-03T02:18:30.756Z,8.80
2018-11-03T02:21:01.658Z,8.70
2018-11-03T02:23:32.476Z,8.70
2018-11-03T02:26:03.365Z,8.70
2018-11-03T02:28:34.472Z,8.70
2018-11-03T02:31:05.951Z,8.70
2018-11-03T02:33:36.886Z,8.60
2018-11-03T02:36:07.860Z,8.60
2018-11-03T02:38:38.724Z,8.60
2018-11-03T02:41:09.639Z,8.50
2018-11-03T02:43:40.782Z,8.50
2018-11-03T02:46:11.640Z,8.60
2018-11-03T02:48:43.032Z,8.50
2018-11-03T02:51:13.956Z,8.60
2018-11-03T02:53:44.765Z,8.60
2018-11-03T02:56:15.925Z,8.60
2018-11-03T02:58:47.138Z,8.70
2018-11-03T03:01:18.269Z,8.70
2018-11-03T03:03:49.414Z,8.80
2018-11-03T03:06:20.533Z,8.80
2018-11-03T03:08:52.008Z,8.80
2018-11-03T03:11:22.890Z,8.90
2018-11-03T03:13:54.022Z,8.80
2018-11-03T03:16:24.943Z,8.80
2018-11-03T03:18:55.896Z,8.90
2018-11-03T03:21:26.992Z,8.90
2018-11-03T03:23:57.893Z,8.90
2018-11-03T03:26:28.737Z,8.90
2018-11-03T03:28:59.717Z,9.00
2018-11-03T03:31:30.806Z,9.00
2018-11-03T03:34:02.202Z,9.00
2018-11-03T03:36:33.348Z,8.90
2018-11-03T03:39:04.318Z,8.90
2018-11-03T03:41:35.430Z,8.90
2018-11-03T03:44:06.439Z,8.90
2018-11-03T03:46:37.364Z,8.90
2018-11-03T03:49:08.550Z,8.80
2018-11-03T03:51:39.444Z,8.80
2018-11-03T03:54:10.310Z,8.80
2018-11-03T03:56:41.157Z,8.70
2018-11-03T03:59:12.073Z,8.80
2018-11-03T04:01:43.209Z,8.80
2018-11-03T04:04:14.436Z,8.70
2018-11-03T04:06:45.370Z,8.70
2018-11-03T04:09:16.221Z,8.70
2018-11-03T04:11:48.362Z,8.70
2018-11-03T04:14:19.565Z,8.70
2018-11-03T04:16:50.539Z,8.60
2018-11-03T04:19:21.412Z,8.70
2018-11-03T04:21:52.377Z,8.80
2018-11-03T04:24:23.325Z,8.80
2018-11-03T04:26:54.664Z,8.80
2018-11-03T04:29:25.598Z,8.80
2018-11-03T04:31:56.489Z,8.90
2018-11-03T04:34:27.447Z,9.30
2018-11-03T04:36:58.456Z,9.00
2018-11-03T04:39:29.433Z,8.90
2018-11-03T04:42:00.339Z,8.90
2018-11-03T04:44:31.212Z,8.90
2018-11-03T04:47:02.406Z,8.90
2018-11-03T04:49:33.342Z,8.90
2018-11-03T04:52:04.212Z,8.90
2018-11-03T04:54:35.151Z,8.80
2018-11-03T04:57:05.987Z,8.80
2018-11-03T04:59:36.933Z,8.90
2018-11-03T05:02:07.904Z,8.80
2018-11-03T05:04:39.097Z,8.80
2018-11-03T05:07:09.993Z,8.80
2018-11-03T05:09:40.931Z,8.80
2018-11-03T05:12:11.874Z,8.80
2018-11-03T05:14:42.802Z,8.70
2018-11-03T05:17:13.690Z,8.70
2018-11-03T05:19:44.896Z,8.70
2018-11-03T05:22:16.368Z,8.70
2018-11-03T05:24:47.285Z,8.70
2018-11-03T05:27:18.166Z,8.70
2018-11-03T05:29:49.209Z,8.60
2018-11-03T05:32:20.102Z,8.70
2018-11-03T05:34:51.054Z,8.70
2018-11-03T05:37:21.990Z,8.70
2018-11-03T05:39:52.853Z,8.70
2018-11-03T05:42:24.010Z,8.70
2018-11-03T05:44:55.089Z,8.80
2018-11-03T05:47:26.484Z,8.90
2018-11-03T05:49:57.424Z,8.80
2018-11-03T05:52:28.480Z,8.80
2018-11-03T05:55:00.113Z,8.80
2018-11-03T05:57:31.099Z,8.90
2018-11-03T06:00:02.087Z,8.90
2018-11-03T06:02:33.483Z,8.80
2018-11-03T06:05:04.473Z,8.90
2018-11-03T06:07:35.604Z,8.80
2018-11-03T06:10:07.492Z,8.80
2018-11-03T06:12:38.965Z,8.80
2018-11-03T06:15:09.946Z,8.70
2018-11-03T06:17:41.280Z,8.80
2018-11-03T06:20:12.285Z,8.80
2018-11-03T06:22:43.408Z,8.80
2018-11-03T06:25:14.406Z,8.80
2018-11-03T06:27:45.452Z,8.80
2018-11-03T06:30:16.354Z,8.70
2018-11-03T06:32:48.227Z,8.80
2018-11-03T06:35:19.268Z,8.80
2018-11-03T06:37:50.499Z,8.80
2018-11-03T06:40:21.683Z,8.80
2018-11-03T06:42:52.596Z,8.90
2018-11-03T06:45:23.513Z,8.90
2018-11-03T06:47:54.467Z,8.90
2018-11-03T06:50:25.407Z,8.90
2018-11-03T06:52:59.640Z,8.90
2018-11-03T06:55:30.888Z,8.90
2018-11-03T06:58:01.947Z,8.90
2018-11-03T07:00:32.902Z,9.00
2018-11-03T07:03:03.933Z,9.00
2018-11-03T07:05:34.933Z,9.10
2018-11-03T07:08:06.125Z,9.10
2018-11-03T07:10:37.061Z,9.20
2018-11-03T07:13:08.220Z,9.20
2018-11-03T07:15:39.456Z,9.20
2018-11-03T07:18:10.491Z,9.20
2018-11-03T07:20:41.435Z,9.30
2018-11-03T07:23:12.747Z,9.30
2018-11-03T07:25:44.025Z,9.40
2018-11-03T07:28:15.060Z,9.40
2018-11-03T07:30:46.124Z,9.50
2018-11-03T07:33:17.057Z,9.50
2018-11-03T07:35:47.989Z,9.50
2018-11-03T07:38:18.893Z,9.60
2018-11-03T07:40:49.946Z,9.70
2018-11-03T07:43:20.865Z,9.70
2018-11-03T07:45:51.933Z,9.70
2018-11-03T07:48:23.062Z,9.80
2018-11-03T07:50:54.380Z,9.80
2018-11-03T07:53:25.448Z,9.80
2018-11-03T07:55:56.876Z,9.80
2018-11-03T07:58:27.925Z,9.90
2018-11-03T08:00:59.214Z,9.90
2018-11-03T08:03:30.198Z,9.90
2018-11-03T08:06:01.397Z,10.00
2018-11-03T08:08:32.349Z,10.00
2018-11-03T08:11:03.502Z,10.00
2018-11-03T08:13:34.512Z,10.10
2018-11-03T08:16:05.766Z,10.10
2018-11-03T08:18:36.792Z,10.20
2018-11-03T08:21:08.049Z,10.20
2018-11-03T08:23:39.278Z,10.30
2018-11-03T08:26:10.534Z,10.30
2018-11-03T08:28:41.709Z,10.30
2018-11-03T08:31:12.738Z,10.40
2018-11-03T08:33:43.650Z,10.50
2018-11-03T08:36:15.282Z,10.60
2018-11-03T08:38:46.579Z,10.70
2018-11-03T08:41:17.729Z,10.80
2018-11-03T08:43:49.495Z,10.90
2018-11-03T08:46:20.763Z,11.00
2018-11-03T08:48:52.705Z,10.90
2018-11-03T08:51:24.026Z,11.00
2018-11-03T08:53:55.365Z,11.00
2018-11-03T08:56:26.732Z,11.00
2018-11-03T08:58:57.683Z,11.10
2018-11-03T09:01:28.910Z,11.10
2018-11-03T09:04:00.259Z,11.10
2018-11-03T09:06:31.375Z,11.00
2018-11-03T09:09:02.417Z,10.90
2018-11-03T09:11:33.504Z,10.90
2018-11-03T09:14:04.880Z,10.90
2018-11-03T09:16:36.158Z,11.00
2018-11-03T09:19:07.296Z,11.00
2018-11-03T09:21:38.719Z,11.00
2018-11-03T09:24:09.587Z,11.10
2018-11-03T09:26:41.136Z,11.10
2018-11-03T09:29:12.031Z,11.20
2018-11-03T09:31:43.059Z,11.20
2018-11-03T09:34:14.141Z,11.20
2018-11-03T09:36:45.072Z,11.10
2018-11-03T09:39:16.898Z,11.10
2018-11-03T09:41:48.032Z,11.20
2018-11-03T09:44:19.303Z,11.30
2018-11-03T09:46:50.286Z,11.30
2018-11-03T09:49:21.504Z,11.40
2018-11-03T09:51:52.752Z,11.50
2018-11-03T09:54:23.724Z,11.50
2018-11-03T09:56:55.001Z,11.60
2018-11-03T09:59:26.107Z,11.60
2018-11-03T10:01:57.825Z,11.80
2018-11-03T10:04:28.766Z,11.90
2018-11-03T10:06:59.701Z,12.00
2018-11-03T10:09:30.883Z,12.10
2018-11-03T10:12:02.277Z,12.20
2018-11-03T10:14:33.960Z,12.10
2018-11-03T10:17:05.097Z,12.20
2018-11-03T10:19:36.074Z,12.20
2018-11-03T10:22:07.520Z,12.30
2018-11-03T10:24:39.554Z,12.30
2018-11-03T10:27:10.639Z,12.30
2018-11-03T10:29:41.663Z,12.40
2018-11-03T10:32:12.593Z,12.50
2018-11-03T10:34:44.239Z,12.50
2018-11-03T10:37:15.548Z,12.60
2018-11-03T10:39:46.460Z,12.40
2018-11-03T10:42:17.501Z,12.30
2018-11-03T10:44:48.371Z,12.20
2018-11-03T10:47:19.407Z,12.10
2018-11-03T10:49:50.438Z,12.00
2018-11-03T10:52:21.867Z,11.90
2018-11-03T10:54:52.889Z,11.90
2018-11-03T10:57:24.182Z,11.90
2018-11-03T10:59:55.136Z,11.90
2018-11-03T11:03:02.886Z,11.80
2018-11-03T11:05:51.844Z,11.80
2018-11-03T11:08:40.147Z,12.00
2018-11-03T11:11:28.636Z,12.00
2018-11-03T11:13:59.984Z,11.90
2018-11-03T11:16:31.030Z,11.90
2018-11-03T11:19:02.138Z,11.90
2018-11-03T11:21:33.374Z,11.90
2018-11-03T11:24:04.843Z,11.90
2018-11-03T11:26:36.001Z,11.80
2018-11-03T11:29:07.111Z,11.80
2018-11-03T11:31:38.548Z,11.70
2018-11-03T11:34:09.465Z,11.70
2018-11-03T11:36:40.543Z,11.60
2018-11-03T11:39:11.531Z,11.60
2018-11-03T11:41:42.771Z,11.60
2018-11-03T11:44:13.742Z,11.60
2018-11-03T11:46:44.597Z,11.60
2018-11-03T11:49:15.657Z,11.60
2018-11-03T11:51:46.513Z,11.50
2018-11-03T11:54:18.239Z,11.50
2018-11-03T11:56:49.093Z,11.50
2018-11-03T11:59:20.206Z,11.50
2018-11-03T12:01:51.325Z,11.50
2018-11-03T12:04:22.480Z,11.50
2018-11-03T12:06:53.388Z,11.60
2018-11-03T12:09:24.314Z,11.60
2018-11-03T12:11:55.204Z,11.70
2018-11-03T12:14:26.059Z,11.70
2018-11-03T12:16:56.989Z,11.80
2018-11-03T12:19:28.379Z,11.80
2018-11-03T12:21:59.264Z,11.90
2018-11-03T12:24:30.146Z,12.00
2018-11-03T12:27:01.038Z,12.00
2018-11-03T12:29:31.900Z,12.00
2018-11-03T12:32:02.753Z,12.00
2018-11-03T12:34:33.613Z,12.00
2018-11-03T12:37:04.486Z,11.90
2018-11-03T12:39:35.386Z,11.90
2018-11-03T12:42:06.999Z,11.80
2018-11-03T12:44:37.877Z,11.80
2018-11-03T12:47:08.831Z,11.80
2018-11-03T12:49:40.236Z,11.80
2018-11-03T12:52:11.093Z,11.80
2018-11-03T12:54:45.755Z,11.90
2018-11-03T12:57:16.922Z,11.90
2018-11-03T12:59:48.214Z,11.90
2018-11-03T13:02:19.801Z,11.90
2018-11-03T13:04:51.855Z,12.00
2018-11-03T13:07:22.702Z,12.00
2018-11-03T13:09:53.902Z,12.00
2018-11-03T13:12:24.714Z,12.00
2018-11-03T13:14:55.571Z,12.00
2018-11-03T13:17:26.670Z,12.10
2018-11-03T13:19:57.845Z,12.20
2018-11-03T13:22:28.753Z,12.20
2018-11-03T13:24:59.941Z,12.30
2018-11-03T13:27:30.809Z,12.20
2018-11-03T13:30:01.700Z,12.30
2018-11-03T13:32:32.561Z,12.30
2018-11-03T13:35:03.783Z,12.30
2018-11-03T13:37:34.571Z,12.20
2018-11-03T13:40:05.574Z,12.20
2018-11-03T13:42:36.722Z,12.10
2018-11-03T13:45:11.043Z,12.10
2018-11-03T13:47:42.385Z,12.10
2018-11-03T13:50:17.695Z,12.10
2018-11-03T13:52:49.389Z,12.10
2018-11-03T13:55:20.580Z,12.10
2018-11-03T13:57:51.955Z,12.10
2018-11-03T14:00:22.816Z,12.10
2018-11-03T14:02:53.714Z,12.10
2018-11-03T14:05:24.669Z,12.10
2018-11-03T14:07:56.559Z,12.10
2018-11-03T14:10:27.463Z,12.10
2018-11-03T14:12:58.321Z,12.10
2018-11-03T14:15:29.521Z,12.10
2018-11-03T14:18:00.796Z,12.00
2018-11-03T14:20:31.638Z,12.00
2018-11-03T14:23:02.501Z,12.00
2018-11-03T14:25:33.735Z,11.90
2018-11-03T14:28:04.651Z,11.90
2018-11-03T14:30:35.484Z,11.90
2018-11-03T14:33:06.734Z,11.90
2018-11-03T14:35:38.007Z,11.90
2018-11-03T14:38:08.905Z,11.80
2018-11-03T14:40:39.841Z,11.80
2018-11-03T14:43:10.733Z,11.80
2018-11-03T14:45:41.640Z,11.70
2018-11-03T14:48:12.575Z,11.80
2018-11-03T14:50:43.793Z,11.70
2018-11-03T14:53:14.683Z,11.70
2018-11-03T14:55:45.567Z,11.60
2018-11-03T14:58:16.424Z,11.60
2018-11-03T15:00:47.296Z,11.50
2018-11-03T15:03:18.173Z,11.50
2018-11-03T15:05:49.131Z,11.50
2018-11-03T15:08:20.552Z,11.50
2018-11-03T15:10:51.974Z,11.40
2018-11-03T15:13:23.164Z,11.40
2018-11-03T15:15:54.340Z,11.40
2018-11-03T15:18:25.290Z,11.30
2018-11-03T15:20:56.217Z,11.30
2018-11-03T15:23:27.413Z,11.30
2018-11-03T15:25:58.398Z,11.30
2018-11-03T15:28:29.475Z,11.30
2018-11-03T15:31:00.347Z,11.20
2018-11-03T15:33:31.703Z,11.20
2018-11-03T15:36:03.303Z,11.20
2018-11-03T15:38:34.501Z,11.20
2018-11-03T15:41:05.762Z,11.20
2018-11-03T15:43:37.048Z,11.10
2018-11-03T15:46:08.406Z,11.10
2018-11-03T15:48:40.183Z,11.10
2018-11-03T15:51:11.193Z,11.00
2018-11-03T15:53:42.111Z,11.00
2018-11-03T15:56:13.973Z,11.00
2018-11-03T15:58:45.887Z,11.00
2018-11-03T16:01:17.034Z,11.00
2018-11-03T16:03:48.225Z,11.00
2018-11-03T16:06:19.142Z,10.90
2018-11-03T16:08:50.386Z,10.90
2018-11-03T16:11:21.346Z,10.90
2018-11-03T16:13:52.621Z,11.00
2018-11-03T16:16:23.885Z,10.90
2018-11-03T16:18:54.739Z,10.90
2018-11-03T16:21:25.606Z,11.00
2018-11-03T16:23:57.232Z,11.10
2018-11-03T16:26:28.406Z,11.10
2018-11-03T16:28:59.290Z,11.10
2018-11-03T16:31:30.177Z,11.10
2018-11-03T16:34:01.204Z,11.10
2018-11-03T16:36:32.457Z,11.20
2018-11-03T16:39:03.328Z,11.30
2018-11-03T16:41:34.229Z,11.30
2018-11-03T16:44:05.192Z,11.20
2018-11-03T16:46:36.098Z,11.20
2018-11-03T16:49:07.257Z,11.10
2018-11-03T16:51:38.228Z,11.00
2018-11-03T16:54:09.087Z,10.90
2018-11-03T16:56:39.998Z,10.90
2018-11-03T16:59:10.990Z,11.00
2018-11-03T17:01:41.912Z,11.00
2018-11-03T17:04:13.954Z,11.10
2018-11-03T17:06:46.160Z,11.10
2018-11-03T17:09:17.824Z,11.10
2018-11-03T17:11:49.387Z,11.10
2018-11-03T17:14:20.628Z,11.00
2018-11-03T17:16:51.598Z,10.90
2018-11-03T17:19:22.538Z,10.80
2018-11-03T17:21:53.876Z,10.80
2018-11-03T17:24:25.444Z,10.70
2018-11-03T17:26:56.643Z,10.70
2018-11-03T17:29:27.822Z,10.80
2018-11-03T17:31:59.089Z,10.90
2018-11-03T17:34:30.226Z,10.90
2018-11-03T17:37:01.133Z,10.90
2018-11-03T17:39:32.608Z,11.00
2018-11-03T17:42:13.008Z,11.00
2018-11-03T17:44:37.792Z,11.00
2018-11-03T17:47:09.009Z,11.10
2018-11-03T17:49:40.836Z,11.00
2018-11-03T17:52:12.134Z,11.10
2018-11-03T17:54:43.421Z,11.00
2018-11-03T17:57:14.335Z,11.00
2018-11-03T17:59:45.989Z,11.00
2018-11-03T18:02:17.054Z,11.00
2018-11-03T18:04:48.430Z,10.90
2018-11-03T18:07:19.515Z,10.80
2018-11-03T18:09:51.262Z,10.80
2018-11-03T18:12:22.700Z,10.70
2018-11-03T18:14:54.422Z,10.70
2018-11-03T18:17:25.479Z,10.70
2018-11-03T18:19:56.775Z,10.70
2018-11-03T18:22:27.784Z,10.70
2018-11-03T18:24:59.082Z,10.70
2018-11-03T18:27:30.446Z,10.70
2018-11-03T18:30:01.487Z,10.70
2018-11-03T18:32:32.410Z,10.70
2018-11-03T18:35:03.456Z,10.70
2018-11-03T18:37:34.470Z,10.70
2018-11-03T18:40:05.702Z,10.70
2018-11-03T18:42:37.080Z,10.70
2018-11-03T18:45:09.080Z,10.70
2018-11-03T18:47:40.133Z,10.70
2018-11-03T18:50:15.511Z,10.60
2018-11-03T18:52:46.596Z,10.70
2018-11-03T18:55:17.856Z,10.60
2018-11-03T18:57:48.850Z,10.70
2018-11-03T19:00:20.584Z,10.80
2018-11-03T19:02:52.325Z,10.70
2018-11-03T19:05:23.510Z,10.70
2018-11-03T19:07:55.301Z,10.70
2018-11-03T19:10:26.565Z,10.70
2018-11-03T19:12:57.846Z,10.70
2018-11-03T19:15:29.293Z,10.60
2018-11-03T19:18:00.362Z,10.60
2018-11-03T19:20:31.636Z,10.60
2018-11-03T19:23:02.752Z,10.70
2018-11-03T19:25:33.725Z,10.60
2018-11-03T19:28:04.885Z,10.60
2018-11-03T19:30:36.231Z,10.70
2018-11-03T19:33:07.531Z,10.70
2018-11-03T19:35:38.928Z,10.70
2018-11-03T19:38:09.889Z,10.70
2018-11-03T19:40:40.991Z,10.70
2018-11-03T19:43:12.917Z,10.70
2018-11-03T19:45:43.888Z,10.70
2018-11-03T19:48:15.317Z,10.60
2018-11-03T19:50:46.694Z,10.70
2018-11-03T19:53:18.035Z,10.70
2018-11-03T19:55:49.399Z,10.60
2018-11-03T19:58:20.863Z,10.50
2018-11-03T20:00:51.897Z,10.50
2018-11-03T20:03:22.928Z,10.60
2018-11-03T20:05:54.295Z,10.60
2018-11-03T20:08:25.661Z,10.60
2018-11-03T20:10:56.531Z,10.50
2018-11-03T20:13:27.812Z,10.50
2018-11-03T20:15:59.139Z,10.50
2018-11-03T20:18:30.173Z,10.50
2018-11-03T20:21:01.126Z,10.50
2018-11-03T20:23:32.680Z,10.40
2018-11-03T20:26:03.732Z,10.40
2018-11-03T20:28:34.681Z,10.40
2018-11-03T20:31:06.399Z,10.30
2018-11-03T20:33:37.604Z,10.30
2018-11-03T20:36:08.548Z,10.30
2018-11-03T20:38:39.640Z,10.40
2018-11-03T20:41:10.597Z,10.40
2018-11-03T20:43:41.605Z,10.40
2018-11-03T20:46:12.933Z,10.40
2018-11-03T20:48:43.978Z,10.40
2018-11-03T20:51:14.953Z,10.40
2018-11-03T20:53:46.460Z,10.50
2018-11-03T20:56:17.526Z,10.40
2018-11-03T20:58:48.575Z,10.40
2018-11-03T21:01:19.570Z,10.30
2018-11-03T21:03:50.548Z,10.30
2018-11-03T21:06:21.491Z,10.20
2018-11-03T21:08:53.736Z,10.30
2018-11-03T21:11:25.052Z,10.30
2018-11-03T21:13:56.604Z,10.20
2018-11-03T21:16:28.332Z,10.30
2018-11-03T21:18:59.250Z,10.30
2018-11-03T21:21:30.202Z,10.20
2018-11-03T21:24:01.495Z,10.20
2018-11-03T21:26:32.985Z,10.20
2018-11-03T21:29:04.090Z,10.20
2018-11-03T21:31:35.409Z,10.30
2018-11-03T21:34:07.127Z,10.30
2018-11-03T21:36:38.149Z,10.30
2018-11-03T21:39:11.585Z,10.30
2018-11-03T21:41:42.873Z,10.30
2018-11-03T21:44:13.780Z,10.30
2018-11-03T21:46:45.179Z,10.30
2018-11-03T21:49:16.576Z,10.30
2018-11-03T21:51:47.962Z,10.20
2018-11-03T21:54:18.908Z,10.20
2018-11-03T21:56:50.162Z,10.20
2018-11-03T21:59:21.084Z,10.10
2018-11-03T22:01:52.463Z,10.10
2018-11-03T22:04:23.513Z,10.10
2018-11-03T22:06:54.842Z,10.10
2018-11-03T22:09:25.893Z,10.10
2018-11-03T22:11:57.187Z,10.20
2018-11-03T22:14:28.055Z,10.20
2018-11-03T22:16:59.106Z,10.20
2018-11-03T22:19:30.053Z,10.20
2018-11-03T22:22:01.033Z,10.20
2018-11-03T22:24:32.017Z,10.20
2018-11-03T22:27:02.904Z,10.10
2018-11-03T22:29:33.823Z,10.10
2018-11-03T22:32:05.282Z,10.10
2018-11-03T22:34:36.271Z,10.10
2018-11-03T22:37:07.277Z,10.10
2018-11-03T22:39:38.194Z,10.10
2018-11-03T22:42:09.132Z,10.10
2018-11-03T22:44:40.388Z,10.10
2018-11-03T22:47:11.316Z,10.10
2018-11-03T22:49:42.601Z,10.00
2018-11-03T22:52:13.563Z,10.00
2018-11-03T22:54:45.079Z,10.00
2018-11-03T22:57:16.272Z,10.00
2018-11-03T22:59:47.115Z,10.00
2018-11-03T23:02:18.546Z,10.00
2018-11-03T23:04:49.490Z,10.10
2018-11-03T23:07:20.871Z,10.10
2018-11-03T23:09:52.531Z,10.00
2018-11-03T23:12:23.846Z,10.00
2018-11-03T23:14:55.165Z,10.00
2018-11-03T23:17:26.523Z,10.00
2018-11-03T23:19:57.423Z,10.00
2018-11-03T23:22:28.733Z,9.90
2018-11-03T23:25:00.102Z,9.90
2018-11-03T23:27:31.388Z,9.90
2018-11-03T23:30:02.433Z,9.90
2018-11-03T23:32:33.413Z,9.80
2018-11-03T23:35:04.379Z,9.80
2018-11-03T23:37:35.313Z,9.80
2018-11-03T23:40:07.477Z,9.80
2018-11-03T23:42:38.547Z,9.80
2018-11-03T23:45:10.834Z,9.80
2018-11-03T23:47:41.772Z,9.80
2018-11-03T23:50:14.180Z,9.80
2018-11-03T23:52:46.352Z,9.80
2018-11-03T23:55:17.285Z,9.80
2018-11-03T23:57:48.187Z,9.80
